Time;durP1;ratioP1;P1;durP2;ratioP2;P2;SDS_P1;SDS_P2;PMS_P1;PMS_P2;Temp;Humidity;BMP_temperature;BMP_pressure;BME280_temperature;BME280_humidity;BME280_pressure;Samples;Min_cycle;Max_cycle;Signal;HPM_P1;HPM_P2
2021/09/18 00:00:06;;;;;;;1.10;0.77;;;13.60;99.90;;;;;;5013580;28;20168;-72
2021/09/18 00:02:32;;;;;;;0.70;0.70;;;13.50;99.90;;;;;;5015187;28;20168;-70
2021/09/18 00:05:00;;;;;;;0.70;0.70;;;13.50;99.90;;;;;;4998749;28;20427;-71
2021/09/18 00:07:26;;;;;;;0.70;0.70;;;13.50;99.90;;;;;;5017071;28;20642;-71
2021/09/18 00:09:53;;;;;;;0.93;0.87;;;13.50;99.90;;;;;;5014476;28;20411;-72
2021/09/18 00:12:18;;;;;;;0.70;0.70;;;13.50;99.90;;;;;;5013943;28;20172;-72
2021/09/18 00:14:44;;;;;;;0.97;0.83;;;13.50;99.90;;;;;;5013491;28;20474;-72
2021/09/18 00:17:09;;;;;;;1.73;0.80;;;13.50;99.90;;;;;;4995787;28;20180;-72
2021/09/18 00:19:35;;;;;;;0.70;0.70;;;13.50;99.90;;;;;;5012839;28;20560;-72
2021/09/18 00:22:01;;;;;;;0.80;0.80;;;13.40;99.90;;;;;;5012536;28;20169;-70
2021/09/18 00:24:27;;;;;;;2.20;0.80;;;13.40;99.90;;;;;;5012285;28;20424;-71
2021/09/18 00:26:53;;;;;;;1.00;0.83;;;13.50;99.90;;;;;;5012541;28;20777;-72
2021/09/18 00:29:18;;;;;;;0.83;0.70;;;13.40;99.90;;;;;;5012787;28;20176;-72
2021/09/18 00:31:44;;;;;;;0.90;0.90;;;13.40;99.90;;;;;;5012873;28;20187;-71
2021/09/18 00:34:10;;;;;;;1.00;0.90;;;13.40;99.90;;;;;;5012202;28;20208;-71
2021/09/18 00:36:36;;;;;;;0.80;0.80;;;13.40;99.90;;;;;;5012305;28;20543;-72
2021/09/18 00:39:02;;;;;;;0.83;0.80;;;13.40;99.90;;;;;;5013635;28;20236;-71
2021/09/18 00:41:27;;;;;;;1.20;1.10;;;13.40;99.90;;;;;;5018804;28;20798;-70
2021/09/18 00:43:55;;;;;;;0.70;0.70;;;13.30;99.90;;;;;;5018843;28;20411;-71
2021/09/18 00:46:21;;;;;;;0.87;0.70;;;13.40;99.90;;;;;;5018694;28;20176;-72
2021/09/18 00:48:47;;;;;;;0.90;0.80;;;13.40;99.90;;;;;;5001214;28;20823;-71
2021/09/18 00:51:13;;;;;;;1.67;0.80;;;13.30;99.90;;;;;;5018774;28;20498;-72
2021/09/18 00:53:39;;;;;;;0.70;0.70;;;13.40;99.90;;;;;;5018975;28;20593;-72
2021/09/18 00:56:05;;;;;;;1.00;0.90;;;13.40;99.90;;;;;;5018505;28;20427;-73
2021/09/18 00:58:31;;;;;;;1.00;0.90;;;13.30;99.90;;;;;;5019056;28;20172;-73
2021/09/18 01:00:58;;;;;;;1.27;1.10;;;13.40;99.90;;;;;;5018834;28;20513;-70
2021/09/18 01:03:24;;;;;;;1.67;0.90;;;13.30;99.90;;;;;;5018619;28;20465;-70
2021/09/18 01:05:49;;;;;;;0.80;0.80;;;13.30;99.90;;;;;;5018748;28;20196;-72
2021/09/18 01:08:20;;;;;;;1.53;1.10;;;13.40;99.90;;;;;;5018562;28;20176;-72
2021/09/18 01:10:46;;;;;;;1.00;0.90;;;13.30;99.90;;;;;;5001047;28;20183;-71
2021/09/18 01:13:15;;;;;;;1.00;0.97;;;13.30;99.90;;;;;;5018528;28;20451;-74
2021/09/18 01:15:41;;;;;;;0.80;0.80;;;13.30;99.90;;;;;;5018615;28;20242;-72
2021/09/18 01:18:08;;;;;;;1.10;1.00;;;13.30;99.90;;;;;;5018845;28;20431;-72
2021/09/18 01:20:36;;;;;;;1.30;0.90;;;13.30;99.90;;;;;;4984638;28;20423;-72
2021/09/18 01:23:02;;;;;;;1.00;0.90;;;13.20;99.90;;;;;;5019320;28;20407;-70
2021/09/18 01:25:31;;;;;;;1.47;1.10;;;13.20;99.90;;;;;;5018777;28;20481;-72
2021/09/18 01:27:57;;;;;;;2.77;1.40;;;13.20;99.90;;;;;;5018763;28;20407;-71
2021/09/18 01:30:25;;;;;;;0.97;0.90;;;13.20;99.90;;;;;;5018680;28;20900;-72
2021/09/18 01:32:52;;;;;;;0.83;0.80;;;13.20;99.90;;;;;;5018343;28;20427;-70
2021/09/18 01:35:18;;;;;;;1.33;0.87;;;13.10;99.90;;;;;;5018446;28;20537;-71
2021/09/18 01:37:47;;;;;;;0.93;0.83;;;13.20;99.90;;;;;;5000308;28;20442;-71
2021/09/18 01:40:27;;;;;;;0.97;0.90;;;13.20;99.90;;;;;;5018020;28;20495;-71
2021/09/18 01:42:54;;;;;;;1.20;0.90;;;13.20;99.90;;;;;;5018481;28;20473;-71
2021/09/18 01:45:20;;;;;;;1.23;1.13;;;13.20;99.90;;;;;;5018287;28;20489;-72
2021/09/18 01:47:54;;;;;;;1.00;1.00;;;13.20;99.90;;;;;;5018762;28;20423;-71
2021/09/18 01:50:25;;;;;;;1.13;0.93;;;13.20;99.90;;;;;;5017372;28;20473;-71
2021/09/18 01:52:53;;;;;;;1.13;0.70;;;13.20;99.90;;;;;;4997598;28;20798;-72
2021/09/18 01:55:19;;;;;;;1.07;1.00;;;13.20;99.90;;;;;;5015165;28;20431;-71
2021/09/18 01:57:50;;;;;;;1.07;0.97;;;13.20;99.90;;;;;;5015043;28;20414;-72
2021/09/18 02:00:16;;;;;;;2.93;1.20;;;13.20;99.90;;;;;;4997185;28;20424;-71
2021/09/18 02:02:43;;;;;;;1.63;1.53;;;13.20;99.90;;;;;;5014855;28;20446;-73
2021/09/18 02:05:10;;;;;;;0.87;0.87;;;13.20;99.90;;;;;;5015671;28;20578;-72
2021/09/18 02:07:35;;;;;;;1.10;1.00;;;13.20;99.90;;;;;;5016069;28;20903;-71
2021/09/18 02:10:01;;;;;;;1.00;0.90;;;13.20;99.90;;;;;;5016294;28;20412;-72
2021/09/18 02:12:27;;;;;;;1.00;0.80;;;13.20;99.90;;;;;;5016250;28;20477;-72
2021/09/18 02:14:52;;;;;;;0.90;0.90;;;13.30;99.90;;;;;;5016680;28;20208;-72
2021/09/18 02:17:17;;;;;;;1.17;1.07;;;13.20;99.90;;;;;;5014956;28;20271;-72
2021/09/18 02:19:43;;;;;;;0.80;0.73;;;13.20;99.90;;;;;;5015103;28;20180;-73
2021/09/18 02:22:09;;;;;;;0.80;0.80;;;13.20;99.90;;;;;;5016289;28;20187;-73
2021/09/18 02:24:34;;;;;;;1.10;1.00;;;13.20;99.90;;;;;;5016956;28;20246;-72
2021/09/18 02:27:00;;;;;;;0.73;0.73;;;13.30;99.90;;;;;;5017505;28;20176;-72
2021/09/18 02:29:25;;;;;;;0.90;0.80;;;13.30;99.90;;;;;;5017213;28;20176;-71
2021/09/18 02:31:51;;;;;;;1.20;1.10;;;13.20;99.90;;;;;;4998327;28;20187;-72
2021/09/18 02:34:16;;;;;;;0.90;0.80;;;13.20;99.90;;;;;;5014862;28;20211;-72
2021/09/18 02:36:42;;;;;;;1.00;0.83;;;13.20;99.90;;;;;;5014958;28;20203;-72
2021/09/18 02:39:08;;;;;;;1.40;1.20;;;13.20;99.90;;;;;;5015650;28;20196;-71
2021/09/18 02:41:33;;;;;;;1.50;1.30;;;13.20;99.90;;;;;;5015641;28;20206;-72
2021/09/18 02:43:59;;;;;;;0.70;0.70;;;13.20;99.90;;;;;;5016377;28;20499;-71
2021/09/18 02:46:28;;;;;;;1.40;1.20;;;13.20;99.90;;;;;;5015612;28;20231;-71
2021/09/18 02:48:53;;;;;;;1.10;1.00;;;13.20;99.90;;;;;;4998253;28;20184;-72
2021/09/18 02:51:22;;;;;;;0.90;0.80;;;13.20;99.90;;;;;;5016463;28;20780;-71
2021/09/18 02:53:48;;;;;;;1.10;1.00;;;13.20;99.90;;;;;;4998704;28;20204;-71
2021/09/18 02:56:13;;;;;;;1.17;1.07;;;13.20;99.90;;;;;;5015625;28;20517;-72
2021/09/18 02:58:39;;;;;;;0.87;0.83;;;13.20;99.90;;;;;;5016285;28;20204;-71
2021/09/18 03:01:04;;;;;;;0.73;0.70;;;13.20;99.90;;;;;;5016110;28;20172;-71
2021/09/18 03:03:30;;;;;;;0.90;0.80;;;13.30;99.90;;;;;;5015215;28;20255;-72
2021/09/18 03:05:56;;;;;;;0.87;0.80;;;13.20;99.90;;;;;;5014949;28;20258;-73
2021/09/18 03:08:24;;;;;;;0.80;0.80;;;13.20;99.90;;;;;;5014937;28;20188;-72
2021/09/18 03:10:51;;;;;;;1.00;0.83;;;13.20;99.90;;;;;;5014950;28;20837;-72
2021/09/18 03:13:17;;;;;;;1.00;0.90;;;13.20;99.90;;;;;;4996966;28;20451;-72
2021/09/18 03:15:43;;;;;;;1.17;1.03;;;13.20;99.90;;;;;;5014384;28;20431;-72
2021/09/18 03:18:09;;;;;;;1.03;0.93;;;13.20;99.90;;;;;;5015186;28;20489;-73
2021/09/18 03:20:34;;;;;;;1.93;0.90;;;13.20;99.90;;;;;;5015144;28;20315;-73
2021/09/18 03:23:00;;;;;;;1.90;1.73;;;13.20;99.90;;;;;;5015826;28;20176;-73
2021/09/18 03:25:25;;;;;;;1.20;1.10;;;13.20;99.90;;;;;;5015837;28;20192;-70
2021/09/18 03:27:51;;;;;;;1.10;0.90;;;13.20;99.90;;;;;;5015555;28;20176;-72
2021/09/18 03:30:16;;;;;;;1.10;0.90;;;13.20;99.90;;;;;;5015842;28;20172;-72
2021/09/18 03:32:42;;;;;;;1.10;1.00;;;13.20;99.90;;;;;;5016051;28;20173;-71
2021/09/18 03:35:08;;;;;;;1.20;1.10;;;13.20;99.90;;;;;;5015871;28;20256;-72
2021/09/18 03:37:34;;;;;;;0.77;0.70;;;13.20;99.90;;;;;;4998361;28;20171;-71
2021/09/18 03:40:09;;;;;;;2.80;1.00;;;13.20;99.90;;;;;;5016516;28;20407;-71
2021/09/18 03:42:35;;;;;;;1.23;1.13;;;13.20;99.90;;;;;;5015632;28;20417;-72
2021/09/18 03:45:01;;;;;;;1.63;1.17;;;13.10;99.90;;;;;;4998153;28;20555;-72
2021/09/18 03:47:27;;;;;;;1.27;1.17;;;13.10;99.90;;;;;;5015159;28;20559;-72
2021/09/18 03:49:54;;;;;;;1.00;1.00;;;13.20;99.90;;;;;;5015595;28;20420;-72
2021/09/18 03:52:20;;;;;;;1.40;1.00;;;13.20;99.90;;;;;;4998616;28;20698;-72
2021/09/18 03:54:45;;;;;;;1.43;1.33;;;13.20;99.90;;;;;;5015835;28;20536;-72
2021/09/18 03:57:11;;;;;;;1.30;1.20;;;13.10;99.90;;;;;;5016254;28;20415;-71
2021/09/18 03:59:36;;;;;;;1.10;1.00;;;13.20;99.90;;;;;;5014467;28;20173;-72
2021/09/18 04:02:02;;;;;;;1.10;1.00;;;13.20;99.90;;;;;;5013706;28;20169;-72
2021/09/18 04:04:28;;;;;;;1.00;0.90;;;13.20;99.90;;;;;;5012989;28;20239;-71
2021/09/18 04:06:54;;;;;;;1.10;1.00;;;13.10;99.90;;;;;;5013025;28;20194;-72
2021/09/18 04:09:19;;;;;;;1.57;1.20;;;13.10;99.90;;;;;;5012814;28;20411;-71
2021/09/18 04:11:45;;;;;;;1.30;1.20;;;13.20;99.90;;;;;;5012912;28;20169;-71
2021/09/18 04:14:11;;;;;;;1.47;1.20;;;13.10;99.90;;;;;;5011723;28;20258;-72
2021/09/18 04:16:36;;;;;;;1.13;1.00;;;13.10;99.90;;;;;;5012462;28;20169;-71
2021/09/18 04:19:05;;;;;;;2.50;1.03;;;13.10;99.90;;;;;;5012710;28;20245;-72
2021/09/18 04:21:33;;;;;;;1.30;1.20;;;13.10;99.90;;;;;;4994998;28;20168;-72
2021/09/18 04:23:59;;;;;;;1.13;0.93;;;13.20;99.90;;;;;;4994683;28;20939;-71
2021/09/18 04:26:25;;;;;;;1.80;1.27;;;13.10;99.90;;;;;;5012397;28;20510;-72
2021/09/18 04:28:50;;;;;;;1.27;1.17;;;13.10;99.90;;;;;;4995189;28;20635;-72
2021/09/18 04:31:16;;;;;;;1.43;1.33;;;13.20;99.90;;;;;;5012518;28;20207;-76
2021/09/18 04:33:41;;;;;;;1.63;1.27;;;13.10;99.90;;;;;;5011938;28;20196;-70
2021/09/18 04:36:07;;;;;;;1.73;1.50;;;13.10;99.90;;;;;;5012483;28;20203;-72
2021/09/18 04:38:33;;;;;;;1.60;1.33;;;13.10;99.90;;;;;;5013336;28;20251;-71
2021/09/18 04:40:58;;;;;;;2.03;1.63;;;13.10;99.90;;;;;;5012921;28;20251;-72
2021/09/18 04:43:24;;;;;;;2.00;1.80;;;13.10;99.90;;;;;;5012725;28;20171;-71
2021/09/18 04:45:51;;;;;;;1.10;1.00;;;13.10;99.90;;;;;;5014464;28;20744;-73
2021/09/18 04:48:16;;;;;;;4.27;1.60;;;13.00;99.90;;;;;;5013451;28;20234;-70
2021/09/18 04:50:42;;;;;;;1.27;1.17;;;13.10;99.90;;;;;;5014047;28;20407;-70
2021/09/18 04:53:07;;;;;;;1.87;1.73;;;13.10;99.90;;;;;;5013531;28;20202;-72
2021/09/18 04:55:36;;;;;;;1.93;1.67;;;13.00;99.90;;;;;;5012896;28;20180;-72
2021/09/18 04:58:02;;;;;;;2.20;1.70;;;13.00;99.90;;;;;;5013207;28;20175;-70
2021/09/18 05:00:28;;;;;;;1.90;1.50;;;13.00;99.90;;;;;;4995559;28;20407;-71
2021/09/18 05:02:57;;;;;;;3.10;1.93;;;12.90;99.90;;;;;;5012970;28;20411;-72
2021/09/18 05:05:22;;;;;;;1.83;1.67;;;13.00;99.90;;;;;;5012502;28;20461;-72
2021/09/18 05:07:48;;;;;;;2.73;1.87;;;13.00;99.90;;;;;;5013660;28;20889;-72
2021/09/18 05:10:13;;;;;;;3.87;1.47;;;13.00;99.90;;;;;;5013430;28;20168;-72
2021/09/18 05:12:39;;;;;;;1.80;1.67;;;13.00;99.90;;;;;;5013089;28;20527;-72
2021/09/18 05:15:09;;;;;;;1.60;1.47;;;13.00;99.90;;;;;;5012867;28;20289;-68
2021/09/18 05:17:34;;;;;;;1.90;1.70;;;12.90;99.90;;;;;;5012087;28;20250;-71
2021/09/18 05:20:00;;;;;;;2.37;1.80;;;13.00;99.90;;;;;;5012621;28;20403;-72
2021/09/18 05:22:26;;;;;;;2.60;1.70;;;12.90;99.90;;;;;;5012011;28;20195;-72
2021/09/18 05:24:51;;;;;;;2.23;1.50;;;13.00;99.90;;;;;;5011877;28;20185;-72
2021/09/18 05:27:18;;;;;;;2.93;2.13;;;13.00;99.90;;;;;;5016584;28;20592;-71
2021/09/18 05:29:44;;;;;;;1.77;1.63;;;13.00;99.90;;;;;;5000009;28;20347;-73
2021/09/18 05:32:11;;;;;;;1.93;1.70;;;13.00;99.90;;;;;;5017776;28;20471;-71
2021/09/18 05:34:37;;;;;;;1.90;1.70;;;13.10;99.90;;;;;;5017964;28;20459;-72
2021/09/18 05:37:03;;;;;;;2.70;1.70;;;13.00;99.90;;;;;;5017425;28;20442;-72
2021/09/18 05:39:28;;;;;;;1.97;1.77;;;13.00;99.90;;;;;;5016718;28;20399;-73
2021/09/18 05:41:54;;;;;;;3.67;2.23;;;12.90;99.90;;;;;;5016387;28;20472;-72
2021/09/18 05:44:20;;;;;;;2.13;1.70;;;13.00;99.90;;;;;;5015457;28;20203;-72
2021/09/18 05:46:45;;;;;;;2.17;1.90;;;13.10;99.90;;;;;;5016365;28;20567;-72
2021/09/18 05:49:11;;;;;;;4.77;2.00;;;13.10;99.90;;;;;;5015692;28;20181;-72
2021/09/18 05:51:36;;;;;;;3.13;1.77;;;13.00;99.90;;;;;;4998412;28;20550;-72
2021/09/18 05:54:02;;;;;;;2.77;1.83;;;13.10;99.90;;;;;;5015893;28;20200;-72
2021/09/18 05:56:27;;;;;;;1.83;1.70;;;13.00;99.90;;;;;;5015630;28;20176;-73
2021/09/18 05:58:53;;;;;;;1.83;1.47;;;13.00;99.90;;;;;;5015436;28;20541;-71
2021/09/18 06:01:18;;;;;;;1.70;1.60;;;13.00;99.90;;;;;;5015927;28;20169;-72
2021/09/18 06:03:44;;;;;;;2.53;1.90;;;13.00;99.90;;;;;;5016402;28;20176;-71
2021/09/18 06:06:09;;;;;;;2.13;1.93;;;13.00;99.90;;;;;;5017057;28;20214;-72
2021/09/18 06:08:35;;;;;;;2.93;1.93;;;13.00;99.90;;;;;;5016757;28;20260;-71
2021/09/18 06:11:00;;;;;;;1.87;1.73;;;13.10;99.90;;;;;;5016237;28;20177;-70
2021/09/18 06:13:26;;;;;;;2.10;1.60;;;13.10;99.90;;;;;;5014765;28;20480;-72
2021/09/18 06:15:51;;;;;;;1.73;1.63;;;13.10;99.90;;;;;;5015007;28;20211;-71
2021/09/18 06:18:28;;;;;;;1.90;1.80;;;13.20;99.90;;;;;;4997491;28;20208;-72
2021/09/18 06:20:54;;;;;;;2.07;1.87;;;13.20;99.90;;;;;;4966835;28;20673;-71
2021/09/18 06:23:20;;;;;;;1.70;1.57;;;13.20;99.90;;;;;;5015992;28;20410;-71
2021/09/18 06:25:45;;;;;;;2.50;2.30;;;13.30;99.90;;;;;;5015372;28;20453;-73
2021/09/18 06:28:11;;;;;;;2.10;1.90;;;13.30;99.90;;;;;;5015193;28;20164;-71
2021/09/18 06:30:37;;;;;;;1.60;1.50;;;13.20;99.90;;;;;;5014777;28;20179;-70
2021/09/18 06:33:02;;;;;;;2.10;1.80;;;13.20;99.90;;;;;;5014800;28;20255;-72
2021/09/18 06:35:28;;;;;;;2.03;1.73;;;13.30;99.90;;;;;;5015075;28;20227;-72
2021/09/18 06:37:54;;;;;;;2.07;1.87;;;13.40;99.90;;;;;;5015208;28;20246;-72
2021/09/18 06:40:20;;;;;;;1.90;1.80;;;13.40;99.90;;;;;;5016005;28;20744;-72
2021/09/18 06:42:47;;;;;;;2.53;1.60;;;13.50;99.90;;;;;;5015615;28;20255;-72
2021/09/18 06:45:14;;;;;;;2.30;1.70;;;13.50;99.90;;;;;;5015699;28;20450;-76
2021/09/18 06:47:39;;;;;;;2.50;1.93;;;13.60;99.90;;;;;;5015443;28;20407;-72
2021/09/18 06:50:08;;;;;;;3.83;1.80;;;13.60;99.90;;;;;;5015756;28;20404;-73
2021/09/18 06:52:37;;;;;;;1.80;1.30;;;13.60;99.90;;;;;;5016325;28;20165;-73
2021/09/18 06:55:04;;;;;;;1.93;1.80;;;13.70;99.90;;;;;;5016279;28;20517;-74
2021/09/18 06:57:32;;;;;;;2.07;1.87;;;13.80;99.90;;;;;;5015932;28;20407;-72
2021/09/18 06:59:57;;;;;;;2.60;2.40;;;13.80;99.90;;;;;;5015682;28;20486;-72
2021/09/18 07:02:22;;;;;;;2.70;2.50;;;13.80;99.90;;;;;;5015406;28;20458;-73
2021/09/18 07:04:48;;;;;;;3.43;2.37;;;13.90;99.90;;;;;;5015579;28;20206;-72
2021/09/18 07:07:14;;;;;;;2.17;1.97;;;13.90;99.90;;;;;;5016140;28;20501;-72
2021/09/18 07:09:42;;;;;;;1.87;1.77;;;14.00;99.90;;;;;;5016020;28;20215;-75
2021/09/18 07:12:07;;;;;;;2.50;2.23;;;14.00;99.90;;;;;;5015812;28;20206;-73
2021/09/18 07:14:33;;;;;;;4.90;3.10;;;14.10;99.90;;;;;;5014498;28;20487;-73
2021/09/18 07:16:58;;;;;;;3.20;2.90;;;14.10;99.90;;;;;;5015274;28;20602;-73
2021/09/18 07:19:24;;;;;;;2.60;2.10;;;14.10;99.90;;;;;;5014979;28;20263;-73
2021/09/18 07:21:49;;;;;;;3.07;2.30;;;14.10;99.90;;;;;;5014916;28;20168;-72
2021/09/18 07:24:15;;;;;;;3.07;2.60;;;14.20;99.90;;;;;;5015257;28;20658;-74
2021/09/18 07:26:46;;;;;;;3.00;2.70;;;14.30;99.90;;;;;;5014854;28;20176;-72
2021/09/18 07:29:11;;;;;;;4.73;3.30;;;14.40;99.90;;;;;;5014910;28;20559;-72
2021/09/18 07:31:37;;;;;;;3.23;2.50;;;14.40;99.90;;;;;;5015314;28;20407;-72
2021/09/18 07:34:11;;;;;;;3.43;3.23;;;14.50;99.90;;;;;;4996644;28;20223;-72
2021/09/18 07:36:36;;;;;;;3.17;2.87;;;14.60;99.90;;;;;;5016009;28;20168;-72
2021/09/18 07:39:02;;;;;;;3.40;2.57;;;14.80;99.90;;;;;;5016112;28;20398;-72
2021/09/18 07:41:28;;;;;;;3.13;2.83;;;15.00;99.90;;;;;;5015735;28;20512;-73
2021/09/18 07:43:59;;;;;;;2.77;2.40;;;14.90;99.90;;;;;;5017114;28;20177;-74
2021/09/18 07:46:28;;;;;;;2.97;2.67;;;15.30;99.90;;;;;;4997636;28;20205;-73
2021/09/18 07:48:58;;;;;;;2.33;2.13;;;15.60;99.90;;;;;;5014284;28;20490;-72
2021/09/18 07:51:24;;;;;;;2.67;2.47;;;16.00;99.90;;;;;;5014921;28;20452;-72
2021/09/18 07:53:50;;;;;;;3.33;2.43;;;16.10;99.90;;;;;;5014247;28;20529;-72
2021/09/18 07:56:16;;;;;;;3.00;2.27;;;16.20;99.90;;;;;;5013849;28;20442;-71
2021/09/18 07:58:43;;;;;;;2.20;1.70;;;16.30;99.90;;;;;;5014116;28;20671;-72
2021/09/18 08:01:09;;;;;;;1.90;1.80;;;16.40;99.90;;;;;;5015097;28;20414;-72
2021/09/18 08:03:35;;;;;;;3.80;3.40;;;16.60;99.90;;;;;;5014877;28;20418;-72
2021/09/18 08:06:12;;;;;;;1.80;1.70;;;16.20;99.90;;;;;;4998305;28;20202;-73
2021/09/18 08:08:38;;;;;;;1.60;1.50;;;16.30;99.90;;;;;;4999388;28;20177;-72
2021/09/18 08:11:03;;;;;;;2.23;2.10;;;16.50;99.90;;;;;;4998007;28;20461;-72
2021/09/18 08:13:29;;;;;;;1.53;1.43;;;16.70;99.90;;;;;;4998399;28;20868;-73
2021/09/18 08:15:54;;;;;;;1.10;1.00;;;16.80;99.90;;;;;;5016167;28;20207;-72
2021/09/18 08:18:20;;;;;;;3.13;1.17;;;16.90;99.90;;;;;;5015289;28;20196;-71
2021/09/18 08:20:46;;;;;;;1.00;1.00;;;17.10;99.90;;;;;;5016173;28;20191;-73
2021/09/18 08:23:11;;;;;;;1.63;1.07;;;17.10;99.90;;;;;;5015209;28;20242;-71
2021/09/18 08:25:37;;;;;;;1.03;0.90;;;17.20;99.90;;;;;;5015235;28;20279;-71
2021/09/18 08:28:02;;;;;;;1.20;0.90;;;17.50;99.90;;;;;;5015376;28;20200;-72
2021/09/18 08:30:31;;;;;;;0.90;0.90;;;18.00;99.90;;;;;;4997046;28;20185;-73
2021/09/18 08:32:56;;;;;;;0.77;0.77;;;17.80;99.90;;;;;;5015166;28;20177;-71
2021/09/18 08:35:22;;;;;;;0.80;0.80;;;17.70;99.90;;;;;;5014935;28;20435;-73
2021/09/18 08:37:47;;;;;;;0.90;0.90;;;17.50;99.90;;;;;;5015291;28;20202;-73
2021/09/18 08:40:13;;;;;;;0.87;0.87;;;17.50;99.90;;;;;;4996913;28;20191;-71
2021/09/18 08:42:42;;;;;;;1.20;0.90;;;17.60;99.90;;;;;;5015138;28;20167;-71
2021/09/18 08:45:11;;;;;;;0.80;0.80;;;17.70;99.90;;;;;;4997227;28;20277;-72
2021/09/18 08:47:37;;;;;;;0.70;0.60;;;17.80;99.90;;;;;;5015108;28;20471;-72
2021/09/18 08:50:05;;;;;;;0.70;0.70;;;18.00;99.90;;;;;;5014323;28;20467;-71
2021/09/18 08:52:30;;;;;;;1.20;0.73;;;17.90;99.90;;;;;;4997296;28;20812;-72
2021/09/18 08:54:56;;;;;;;0.73;0.70;;;17.70;99.90;;;;;;5014106;28;20465;-71
2021/09/18 08:57:21;;;;;;;0.60;0.60;;;17.70;99.90;;;;;;5014463;28;20170;-71
2021/09/18 08:59:47;;;;;;;1.20;0.60;;;17.70;99.90;;;;;;5014153;28;20214;-71
2021/09/18 09:02:23;;;;;;;0.83;0.70;;;17.90;99.90;;;;;;5017565;28;20170;-73
2021/09/18 09:05:01;;;;;;;0.70;0.70;;;18.00;99.90;;;;;;5018302;28;20208;-72
2021/09/18 09:07:26;;;;;;;0.70;0.70;;;18.30;99.90;;;;;;5017610;28;20408;-73
2021/09/18 09:10:00;;;;;;;0.83;0.60;;;18.40;99.90;;;;;;5017397;28;20416;-74
2021/09/18 09:12:31;;;;;;;0.87;0.60;;;18.10;99.90;;;;;;5018136;28;20169;-70
2021/09/18 09:14:59;;;;;;;0.60;0.60;;;17.90;99.90;;;;;;5018235;28;20462;-72
2021/09/18 09:17:33;;;;;;;0.80;0.70;;;17.90;99.90;;;;;;5017552;28;20422;-72
2021/09/18 09:20:00;;;;;;;0.77;0.77;;;17.70;99.90;;;;;;5017952;28;20400;-72
2021/09/18 09:22:55;;;;;;;1.00;0.80;;;17.30;99.90;;;;;;5016665;28;20495;-73
2021/09/18 09:25:33;;;;;;;0.90;0.60;;;16.80;99.90;;;;;;5000288;28;20438;-72
2021/09/18 09:28:21;;;;;;;0.70;0.70;;;16.50;99.90;;;;;;5017935;28;20414;-72
2021/09/18 09:30:46;;;;;;;0.60;0.60;;;16.40;99.90;;;;;;5021164;28;20417;-72
2021/09/18 09:33:12;;;;;;;0.70;0.63;;;16.50;99.90;;;;;;5022616;28;20461;-72
2021/09/18 09:35:38;;;;;;;0.70;0.70;;;16.70;99.90;;;;;;5023132;28;20257;-72
2021/09/18 09:38:05;;;;;;;1.10;0.60;;;16.90;99.90;;;;;;5019848;28;20410;-73
2021/09/18 09:40:39;;;;;;;0.80;0.80;;;16.90;99.90;;;;;;5018450;28;20410;-73
2021/09/18 09:43:06;;;;;;;0.70;0.70;;;16.90;99.90;;;;;;5017653;28;20409;-71
2021/09/18 09:45:32;;;;;;;0.83;0.70;;;17.20;99.90;;;;;;5017457;28;20423;-71
2021/09/18 09:48:07;;;;;;;1.17;0.80;;;17.20;99.90;;;;;;5016452;28;20418;-72
2021/09/18 09:50:33;;;;;;;1.97;0.80;;;17.20;99.90;;;;;;5016298;28;20773;-73
2021/09/18 09:53:02;;;;;;;0.80;0.73;;;17.30;99.90;;;;;;5016131;28;20986;-73
2021/09/18 09:55:28;;;;;;;0.70;0.70;;;17.60;99.90;;;;;;5015755;28;20420;-72
2021/09/18 09:58:05;;;;;;;0.67;0.63;;;17.80;99.90;;;;;;5016719;28;20422;-72
2021/09/18 10:00:40;;;;;;;0.60;0.60;;;17.90;99.90;;;;;;5016904;28;20424;-72
2021/09/18 10:03:06;;;;;;;0.80;0.70;;;17.50;99.90;;;;;;5017596;28;20399;-72
2021/09/18 10:05:31;;;;;;;0.57;0.57;;;17.30;99.90;;;;;;5017214;28;20507;-72
2021/09/18 10:07:59;;;;;;;0.70;0.60;;;17.30;99.90;;;;;;5017042;28;20427;-72
2021/09/18 10:10:25;;;;;;;0.73;0.73;;;17.20;99.90;;;;;;5017090;28;20187;-72
2021/09/18 10:12:51;;;;;;;0.60;0.60;;;17.20;99.90;;;;;;4997633;28;20857;-72
2021/09/18 10:15:18;;;;;;;0.70;0.70;;;17.30;99.90;;;;;;5015698;28;20466;-72
2021/09/18 10:17:46;;;;;;;0.80;0.60;;;17.50;99.90;;;;;;5015297;28;20425;-72
2021/09/18 10:25:37;;;;;;;0.70;0.50;;;17.80;99.90;;;;;;5015922;28;20462;-73
2021/09/18 10:28:12;;;;;;;0.70;0.70;;;17.90;99.90;;;;;;5016671;28;20526;-73
2021/09/18 10:30:42;;;;;;;0.70;0.60;;;17.90;99.90;;;;;;5015140;28;20432;-71
2021/09/18 10:33:26;;;;;;;1.63;0.70;;;17.90;99.90;;;;;;5014754;28;20426;-72
2021/09/18 10:35:57;;;;;;;0.60;0.60;;;17.90;99.90;;;;;;5015507;28;20442;-72
2021/09/18 10:38:26;;;;;;;1.47;0.57;;;17.90;99.90;;;;;;5014921;28;20407;-71
2021/09/18 10:41:05;;;;;;;0.60;0.60;;;17.80;99.90;;;;;;5015317;28;20487;-72
2021/09/18 10:43:37;;;;;;;0.50;0.50;;;18.00;99.90;;;;;;5014742;28;20992;-73
2021/09/18 10:46:04;;;;;;;0.57;0.57;;;18.20;99.90;;;;;;5015082;28;20799;-71
2021/09/18 10:48:37;;;;;;;0.70;0.53;;;18.70;99.90;;;;;;4997090;28;20702;-72
2021/09/18 10:51:03;;;;;;;0.70;0.60;;;18.70;99.90;;;;;;5014716;28;20429;-72
2021/09/18 10:53:29;;;;;;;1.83;0.80;;;18.70;99.90;;;;;;5014850;28;20543;-72
2021/09/18 10:56:02;;;;;;;0.60;0.50;;;18.50;99.90;;;;;;5014231;28;20849;-71
2021/09/18 10:58:28;;;;;;;0.60;0.50;;;18.10;99.90;;;;;;5014330;28;20186;-73
2021/09/18 11:00:59;;;;;;;0.70;0.57;;;17.90;99.90;;;;;;5014828;28;20926;-72
2021/09/18 11:03:39;;;;;;;0.57;0.50;;;17.60;99.90;;;;;;5015138;28;20427;-71
2021/09/18 11:06:05;;;;;;;0.60;0.60;;;17.30;99.90;;;;;;5014154;28;20430;-70
2021/09/18 11:08:35;;;;;;;0.50;0.47;;;17.20;99.90;;;;;;5013583;28;20940;-71
2021/09/18 11:11:09;;;;;;;1.07;0.70;;;17.20;99.90;;;;;;5014022;28;20414;-72
2021/09/18 11:13:38;;;;;;;0.60;0.60;;;17.10;99.90;;;;;;5014081;28;20965;-71
2021/09/18 11:16:31;;;;;;;0.80;0.67;;;17.00;99.90;;;;;;5013934;28;20431;-72
2021/09/18 11:19:17;;;;;;;0.80;0.70;;;17.00;99.90;;;;;;5005997;28;20922;-71
2021/09/18 11:21:44;;;;;;;0.70;0.60;;;17.30;99.90;;;;;;5013702;28;20403;-72
2021/09/18 11:24:15;;;;;;;0.70;0.60;;;17.20;99.90;;;;;;5013326;28;20430;-71
2021/09/18 11:26:52;;;;;;;0.80;0.80;;;17.00;99.90;;;;;;5014264;28;20425;-74
2021/09/18 11:29:22;;;;;;;0.60;0.60;;;16.60;99.90;;;;;;5015108;28;20885;-74
2021/09/18 11:32:04;;;;;;;0.97;0.83;;;16.40;99.90;;;;;;5013818;28;20811;-72
2021/09/18 11:34:33;;;;;;;0.80;0.80;;;16.20;99.90;;;;;;5014767;28;20552;-72
2021/09/18 11:37:01;;;;;;;1.00;0.73;;;16.00;99.90;;;;;;5014234;28;20507;-73
2021/09/18 11:39:41;;;;;;;1.10;0.70;;;15.80;99.90;;;;;;5015829;28;20408;-74
2021/09/18 11:42:19;;;;;;;0.80;0.70;;;15.50;99.90;;;;;;5016364;28;20430;-73
2021/09/18 11:44:47;;;;;;;0.80;0.80;;;15.40;99.90;;;;;;5014677;28;20472;-72
2021/09/18 11:47:20;;;;;;;0.97;0.90;;;15.30;99.90;;;;;;5013507;28;20895;-73
2021/09/18 11:49:45;;;;;;;1.40;0.93;;;15.30;99.90;;;;;;5013851;28;20468;-72
2021/09/18 11:52:11;;;;;;;0.83;0.83;;;15.40;99.90;;;;;;5014349;28;20407;-72
2021/09/18 11:54:36;;;;;;;1.00;0.90;;;15.50;99.90;;;;;;5014508;28;20211;-72
2021/09/18 11:57:13;;;;;;;1.43;1.30;;;15.60;99.90;;;;;;5013998;28;20209;-72
2021/09/18 11:59:38;;;;;;;2.83;1.00;;;15.80;99.90;;;;;;5013551;28;20169;-71
2021/09/18 12:02:04;;;;;;;0.90;0.90;;;16.00;99.90;;;;;;5013768;28;20433;-71
2021/09/18 12:04:41;;;;;;;1.30;1.13;;;16.20;99.90;;;;;;5013756;28;20209;-73
2021/09/18 12:07:07;;;;;;;2.00;1.10;;;16.30;99.90;;;;;;5014619;28;20173;-72
2021/09/18 12:09:33;;;;;;;1.20;1.10;;;16.40;99.90;;;;;;5013891;28;20917;-73
2021/09/18 12:11:58;;;;;;;1.13;1.03;;;16.40;99.90;;;;;;5013305;28;20416;-70
2021/09/18 12:14:32;;;;;;;1.47;1.37;;;16.50;99.90;;;;;;5013724;28;20210;-72
2021/09/18 12:17:09;;;;;;;1.10;1.00;;;16.60;99.90;;;;;;5014004;28;20185;-73
2021/09/18 12:19:35;;;;;;;1.47;1.10;;;16.70;99.90;;;;;;5013311;28;20450;-72
2021/09/18 12:22:00;;;;;;;1.20;1.10;;;16.80;99.90;;;;;;5013317;28;20444;-71
2021/09/18 12:24:26;;;;;;;1.10;1.00;;;16.90;99.90;;;;;;5012864;28;20188;-72
2021/09/18 12:26:51;;;;;;;1.00;0.90;;;17.00;99.90;;;;;;5013520;28;20174;-71
2021/09/18 12:29:17;;;;;;;1.30;1.20;;;17.10;99.90;;;;;;5014300;28;20267;-71
2021/09/18 12:31:46;;;;;;;1.13;1.03;;;17.20;99.90;;;;;;5013905;28;20657;-72
2021/09/18 12:34:18;;;;;;;1.83;1.43;;;17.00;99.90;;;;;;5014304;28;21039;-72
2021/09/18 12:36:45;;;;;;;2.90;2.03;;;17.20;99.90;;;;;;5014039;28;20468;-72
2021/09/18 12:39:11;;;;;;;3.60;2.43;;;17.30;99.90;;;;;;5014091;28;20422;-72
2021/09/18 12:41:40;;;;;;;2.30;2.00;;;17.30;99.90;;;;;;5013334;28;20903;-73
2021/09/18 12:44:12;;;;;;;3.47;3.17;;;17.00;99.90;;;;;;5013216;28;20746;-71
2021/09/18 12:46:47;;;;;;;3.40;3.10;;;16.80;99.90;;;;;;5013157;28;20445;-72
2021/09/18 12:49:30;;;;;;;5.20;3.63;;;16.50;99.90;;;;;;5013355;28;20889;-74
2021/09/18 12:52:04;;;;;;;6.70;5.03;;;16.40;99.90;;;;;;5014590;28;20774;-72
2021/09/18 12:54:41;;;;;;;3.57;3.17;;;16.20;99.90;;;;;;5015153;28;20526;-72